createdAt,value
2023-08-10T00:00:26.461Z,94.92
2023-08-10T00:02:53.659Z,95.14
2023-08-10T00:05:20.814Z,95.11
2023-08-10T00:07:47.529Z,95.32
2023-08-10T00:10:14.202Z,95.30
2023-08-10T00:12:40.969Z,95.59
2023-08-10T00:15:08.293Z,95.76
2023-08-10T00:17:35.314Z,95.88
2023-08-10T00:20:02.260Z,95.81
2023-08-10T00:22:29.085Z,96.04
2023-08-10T00:24:55.938Z,96.05
2023-08-10T00:27:23.788Z,95.81
2023-08-10T00:29:50.510Z,95.81
2023-08-10T00:32:17.548Z,95.85
2023-08-10T00:34:44.235Z,95.89
2023-08-10T00:37:10.912Z,96.20
2023-08-10T00:39:38.232Z,95.97
2023-08-10T00:42:05.551Z,95.89
2023-08-10T00:44:32.559Z,95.86
2023-08-10T00:46:59.831Z,95.90
2023-08-10T00:49:27.614Z,95.82
2023-08-10T00:51:54.581Z,95.69
2023-08-10T00:54:21.352Z,95.63
2023-08-10T00:56:48.088Z,95.57
2023-08-10T00:59:14.852Z,95.73
2023-08-10T01:01:41.772Z,95.69
2023-08-10T01:04:08.561Z,95.77
2023-08-10T01:06:50.055Z,95.64
2023-08-10T01:09:45.484Z,95.56
2023-08-10T01:12:18.836Z,95.63
2023-08-10T01:15:04.266Z,95.45
2023-08-10T01:17:38.635Z,95.66
2023-08-10T01:20:09.214Z,95.70
2023-08-10T01:22:51.563Z,95.67
2023-08-10T01:25:21.328Z,95.49
2023-08-10T01:27:48.732Z,95.54
2023-08-10T01:30:16.255Z,95.62
2023-08-10T01:32:43.035Z,95.70
2023-08-10T01:35:11.685Z,95.69
2023-08-10T01:37:38.793Z,95.63
2023-08-10T01:40:09.864Z,95.60
2023-08-10T01:42:36.852Z,95.73
2023-08-10T01:45:06.292Z,95.39
2023-08-10T01:47:37.936Z,95.51
2023-08-10T01:50:08.025Z,95.42
2023-08-10T01:52:47.290Z,95.42
2023-08-10T01:55:15.042Z,95.53
2023-08-10T01:57:41.801Z,95.53
2023-08-10T02:00:09.309Z,95.39
2023-08-10T02:02:36.288Z,95.00
2023-08-10T02:05:03.218Z,95.05
2023-08-10T02:07:29.912Z,95.22
2023-08-10T02:09:56.806Z,95.26
2023-08-10T02:12:24.838Z,95.45
2023-08-10T02:14:52.882Z,95.35
2023-08-10T02:17:19.678Z,95.36
2023-08-10T02:19:46.421Z,95.68
2023-08-10T02:22:13.089Z,95.50
2023-08-10T02:24:39.795Z,95.61
2023-08-10T02:27:06.648Z,95.67
2023-08-10T02:29:33.443Z,95.89
2023-08-10T02:32:02.188Z,95.68
2023-08-10T02:34:29.342Z,95.86
2023-08-10T02:36:56.053Z,95.69
2023-08-10T02:39:22.834Z,95.65
2023-08-10T02:41:49.798Z,95.57
2023-08-10T02:44:16.600Z,95.55
2023-08-10T02:46:43.641Z,95.75
2023-08-10T02:49:10.336Z,95.58
2023-08-10T02:51:37.084Z,95.58
2023-08-10T02:54:03.840Z,95.77
2023-08-10T02:56:30.537Z,96.00
2023-08-10T02:58:57.258Z,96.24
2023-08-10T03:01:23.942Z,96.09
2023-08-10T03:03:50.711Z,96.09
2023-08-10T03:06:17.386Z,95.96
2023-08-10T03:08:44.970Z,96.06
2023-08-10T03:11:11.797Z,96.19
2023-08-10T03:13:38.470Z,96.16
2023-08-10T03:16:05.681Z,96.09
2023-08-10T03:18:32.369Z,95.91
2023-08-10T03:20:59.053Z,95.73
2023-08-10T03:23:25.973Z,95.63
2023-08-10T03:25:52.772Z,95.73
2023-08-10T03:28:19.715Z,96.12
2023-08-10T03:30:46.478Z,96.23
2023-08-10T03:33:13.157Z,96.24
2023-08-10T03:35:39.813Z,96.46
2023-08-10T03:38:06.917Z,96.28
2023-08-10T03:40:33.741Z,96.19
2023-08-10T03:43:00.438Z,96.42
2023-08-10T03:45:27.177Z,96.46
2023-08-10T03:47:53.947Z,96.57
2023-08-10T03:50:21.035Z,96.82
2023-08-10T03:52:47.790Z,96.62
2023-08-10T03:55:15.919Z,96.40
2023-08-10T03:57:43.541Z,96.33
2023-08-10T04:00:11.610Z,96.31
2023-08-10T04:02:38.668Z,96.23
2023-08-10T04:05:07.644Z,96.28
2023-08-10T04:07:34.955Z,96.37
2023-08-10T04:10:02.323Z,96.22
2023-08-10T04:12:29.212Z,96.23
2023-08-10T04:14:55.919Z,96.49
2023-08-10T04:17:22.736Z,96.61
2023-08-10T04:19:49.492Z,96.49
2023-08-10T04:22:16.563Z,96.38
2023-08-10T04:24:43.240Z,96.26
2023-08-10T04:27:09.976Z,96.25
2023-08-10T04:29:36.776Z,96.02
2023-08-10T04:32:03.849Z,96.11
2023-08-10T04:34:30.748Z,95.92
2023-08-10T04:36:57.474Z,96.34
2023-08-10T04:39:24.184Z,96.35
2023-08-10T04:41:50.910Z,96.36
2023-08-10T04:44:17.572Z,96.74
2023-08-10T04:46:44.233Z,96.69
2023-08-10T04:49:11.870Z,96.50
2023-08-10T04:51:38.540Z,96.68
2023-08-10T04:54:05.710Z,96.59
2023-08-10T04:56:32.664Z,96.71
2023-08-10T04:58:59.340Z,96.22
2023-08-10T05:01:26.122Z,96.23
2023-08-10T05:03:52.919Z,96.02
2023-08-10T05:06:19.678Z,95.82
2023-08-10T05:08:46.344Z,95.55
2023-08-10T05:11:13.138Z,95.95
2023-08-10T05:13:39.854Z,95.92
2023-08-10T05:16:06.667Z,95.99
2023-08-10T05:18:35.495Z,95.71
2023-08-10T05:21:04.174Z,95.67
2023-08-10T05:23:30.853Z,95.72
2023-08-10T05:25:58.188Z,95.28
2023-08-10T05:28:24.913Z,95.35
2023-08-10T05:30:51.851Z,95.49
2023-08-10T05:33:18.522Z,95.49
2023-08-10T05:35:45.282Z,95.21
2023-08-10T05:38:12.138Z,95.15
2023-08-10T05:40:38.836Z,95.29
2023-08-10T05:43:06.140Z,95.17
2023-08-10T05:45:32.943Z,94.99
2023-08-10T05:47:59.682Z,94.59
2023-08-10T05:50:26.589Z,94.96
2023-08-10T05:52:53.427Z,94.90
2023-08-10T05:55:20.244Z,94.87
2023-08-10T05:57:46.982Z,94.86
2023-08-10T06:00:15.606Z,94.34
2023-08-10T06:02:42.670Z,94.27
2023-08-10T06:05:10.177Z,93.81
2023-08-10T06:07:38.211Z,93.84
2023-08-10T06:10:05.985Z,93.88
2023-08-10T06:12:33.303Z,93.57
2023-08-10T06:15:00.445Z,93.18
2023-08-10T06:17:27.536Z,92.71
2023-08-10T06:19:57.292Z,92.90
2023-08-10T06:22:25.988Z,92.77
2023-08-10T06:24:52.776Z,92.57
2023-08-10T06:27:19.507Z,92.73
2023-08-10T06:29:46.189Z,92.77
2023-08-10T06:32:13.269Z,92.28
2023-08-10T06:34:39.995Z,91.77
2023-08-10T06:37:06.733Z,91.87
2023-08-10T06:39:33.475Z,92.16
2023-08-10T06:42:00.209Z,92.52
2023-08-10T06:44:26.886Z,92.61
2023-08-10T06:46:53.631Z,92.95
2023-08-10T06:49:22.690Z,92.80
2023-08-10T06:51:50.937Z,92.19
2023-08-10T06:54:17.995Z,91.84
2023-08-10T06:56:44.728Z,91.26
2023-08-10T07:01:41.389Z,89.88
2023-08-10T07:04:09.061Z,89.12
2023-08-10T07:06:36.063Z,88.54
2023-08-10T07:09:03.021Z,87.62
2023-08-10T07:11:29.794Z,86.57
2023-08-10T07:13:56.641Z,86.17
2023-08-10T07:16:23.508Z,85.68
2023-08-10T07:18:50.411Z,85.07
2023-08-10T07:21:17.189Z,84.74
2023-08-10T07:23:43.942Z,83.68
2023-08-10T07:26:11.494Z,82.66
2023-08-10T07:28:38.735Z,82.42
2023-08-10T07:31:05.474Z,82.27
2023-08-10T07:33:32.800Z,82.59
2023-08-10T07:36:00.680Z,82.95
2023-08-10T07:38:30.254Z,82.91
2023-08-10T07:40:57.013Z,81.47
2023-08-10T07:43:23.999Z,78.86
2023-08-10T07:45:50.698Z,77.70
2023-08-10T07:48:17.650Z,78.20
2023-08-10T07:50:44.449Z,77.54
2023-08-10T07:53:11.118Z,76.57
2023-08-10T07:55:38.571Z,77.11
2023-08-10T07:58:05.296Z,76.51
2023-08-10T08:00:31.975Z,76.31
2023-08-10T08:02:58.791Z,74.63
2023-08-10T08:05:25.683Z,74.62
2023-08-10T08:07:52.358Z,72.54
2023-08-10T08:10:19.075Z,70.96
2023-08-10T08:12:45.827Z,71.85
2023-08-10T08:15:12.639Z,72.58
2023-08-10T08:18:17.062Z,71.40
2023-08-10T08:20:44.064Z,70.76
2023-08-10T08:23:14.174Z,70.21
2023-08-10T08:25:41.100Z,69.50
2023-08-10T08:28:08.012Z,68.75
2023-08-10T08:30:34.727Z,68.25
2023-08-10T08:33:01.561Z,67.70
2023-08-10T08:35:28.453Z,67.79
2023-08-10T08:37:55.289Z,67.06
2023-08-10T08:40:22.318Z,66.97
2023-08-10T08:42:50.315Z,67.55
2023-08-10T08:45:17.569Z,65.23
2023-08-10T08:47:45.782Z,65.32
2023-08-10T08:50:12.991Z,65.79
2023-08-10T08:52:41.523Z,65.63
2023-08-10T08:55:08.775Z,65.14
2023-08-10T08:57:35.545Z,61.32
2023-08-10T09:00:02.881Z,60.84
2023-08-10T09:02:29.911Z,60.83
2023-08-10T09:05:00.646Z,60.20
2023-08-10T09:07:31.503Z,57.36
2023-08-10T09:09:59.108Z,59.60
2023-08-10T09:12:41.064Z,59.90
2023-08-10T09:15:12.398Z,59.12
2023-08-10T09:17:44.979Z,60.38
2023-08-10T09:20:18.834Z,60.09
2023-08-10T09:22:46.059Z,58.24
2023-08-10T09:25:12.792Z,60.73
2023-08-10T09:27:39.480Z,63.77
2023-08-10T09:30:08.901Z,63.77
2023-08-10T09:32:36.535Z,62.25
2023-08-10T09:35:05.183Z,61.52
2023-08-10T09:37:31.885Z,63.62
2023-08-10T09:40:07.129Z,61.56
2023-08-10T09:42:35.000Z,59.61
2023-08-10T09:45:07.024Z,58.44
2023-08-10T09:47:41.832Z,55.60
2023-08-10T09:50:15.526Z,55.47
2023-08-10T09:52:43.283Z,56.46
2023-08-10T09:55:14.496Z,56.44
2023-08-10T09:57:46.447Z,54.43
2023-08-10T10:00:19.890Z,55.58
2023-08-10T10:02:47.981Z,56.41
2023-08-10T10:07:49.449Z,56.71
2023-08-10T10:10:17.466Z,55.71
2023-08-10T10:12:49.775Z,56.56
2023-08-10T10:15:17.978Z,57.16
2023-08-10T10:17:44.792Z,53.58
2023-08-10T10:20:12.990Z,56.44
2023-08-10T10:22:40.053Z,55.37
2023-08-10T10:25:14.579Z,54.63
2023-08-10T10:27:41.594Z,55.92
2023-08-10T10:30:19.566Z,55.90
2023-08-10T10:32:48.588Z,55.44
2023-08-10T10:35:25.023Z,54.55
2023-08-10T10:37:57.307Z,56.37
2023-08-10T10:40:25.253Z,54.88
2023-08-10T10:43:08.739Z,53.77
2023-08-10T10:45:38.408Z,54.65
2023-08-10T10:48:08.024Z,56.40
2023-08-10T10:50:36.474Z,55.12
2023-08-10T10:53:08.489Z,55.41
2023-08-10T10:55:35.198Z,56.21
2023-08-10T10:58:07.397Z,55.15
2023-08-10T11:00:36.030Z,56.13
2023-08-10T11:03:05.392Z,54.75
2023-08-10T11:05:32.406Z,56.83
2023-08-10T11:08:04.770Z,56.22
2023-08-10T11:10:36.005Z,56.49
2023-08-10T11:13:10.628Z,57.13
2023-08-10T11:15:40.656Z,58.92
2023-08-10T11:18:12.724Z,59.32
2023-08-10T11:20:46.638Z,58.93
2023-08-10T11:23:14.007Z,60.58
2023-08-10T11:25:51.873Z,61.38
2023-08-10T11:28:22.137Z,63.29
2023-08-10T11:30:49.879Z,65.06
2023-08-10T11:35:51.797Z,64.23
2023-08-10T11:38:18.626Z,65.02
2023-08-10T11:40:45.973Z,65.07
2023-08-10T11:43:21.354Z,65.03
2023-08-10T11:45:49.692Z,65.78
2023-08-10T11:48:19.047Z,66.49
2023-08-10T11:50:46.999Z,64.04
2023-08-10T11:53:20.573Z,62.64
2023-08-10T11:55:52.357Z,62.99
2023-08-10T11:58:20.493Z,62.16
2023-08-10T12:00:52.420Z,61.59
2023-08-10T12:03:26.361Z,62.78
2023-08-10T12:05:56.134Z,59.60
2023-08-10T12:08:32.934Z,62.07
2023-08-10T12:11:01.911Z,63.44
2023-08-10T12:13:29.310Z,57.84
2023-08-10T12:15:57.390Z,59.14
2023-08-10T12:18:25.113Z,62.66
2023-08-10T12:20:53.541Z,61.60
2023-08-10T12:23:21.708Z,60.43
2023-08-10T12:25:50.106Z,58.64
2023-08-10T12:28:18.833Z,57.70
2023-08-10T12:30:46.136Z,58.58
2023-08-10T12:33:13.265Z,57.84
2023-08-10T12:35:40.760Z,55.33
2023-08-10T12:38:08.400Z,53.70
2023-08-10T12:40:35.457Z,50.71
2023-08-10T12:43:02.161Z,51.28
2023-08-10T12:45:28.961Z,50.72
2023-08-10T12:48:00.835Z,51.56
2023-08-10T12:50:28.761Z,52.07
2023-08-10T12:52:56.094Z,51.71
2023-08-10T12:55:23.446Z,55.62
2023-08-10T12:57:50.404Z,58.50
2023-08-10T13:00:19.827Z,57.43
2023-08-10T13:02:47.605Z,58.75
2023-08-10T13:05:15.133Z,58.23
2023-08-10T13:07:43.364Z,56.14
2023-08-10T13:10:13.966Z,55.73
2023-08-10T13:12:43.045Z,57.95
2023-08-10T13:15:10.075Z,58.04
2023-08-10T13:17:37.271Z,58.46
2023-08-10T13:20:04.717Z,58.71
2023-08-10T13:22:34.440Z,57.78
2023-08-10T13:25:02.707Z,55.39
2023-08-10T13:27:29.430Z,57.82
2023-08-10T13:29:56.254Z,58.77
2023-08-10T13:32:24.001Z,57.17
2023-08-10T13:34:51.366Z,58.55
2023-08-10T13:37:19.053Z,58.83
2023-08-10T13:39:45.817Z,60.33
2023-08-10T13:42:12.826Z,61.07
2023-08-10T13:44:39.733Z,61.90
2023-08-10T13:47:06.563Z,60.52
2023-08-10T13:49:45.099Z,59.11
2023-08-10T13:52:20.484Z,55.74
2023-08-10T13:54:47.167Z,55.44
2023-08-10T13:57:14.001Z,56.84
2023-08-10T13:59:41.055Z,55.42
2023-08-10T14:02:09.961Z,56.27
2023-08-10T14:04:37.279Z,54.80
2023-08-10T14:07:05.824Z,54.24
2023-08-10T14:09:35.465Z,53.18
2023-08-10T14:12:02.397Z,54.51
2023-08-10T14:14:31.166Z,55.06
2023-08-10T14:16:58.073Z,53.84
2023-08-10T14:19:25.229Z,54.59
2023-08-10T14:21:52.368Z,56.52
2023-08-10T14:24:19.240Z,55.41
2023-08-10T14:26:45.972Z,54.01
2023-08-10T14:29:12.804Z,53.54
2023-08-10T14:31:40.888Z,52.91
2023-08-10T14:34:07.683Z,52.31
2023-08-10T14:36:34.785Z,53.59
2023-08-10T14:39:01.616Z,52.26
2023-08-10T14:41:28.412Z,52.51
2023-08-10T14:43:55.772Z,53.07
2023-08-10T14:46:23.751Z,51.99
2023-08-10T14:48:52.374Z,52.18
2023-08-10T14:51:19.239Z,52.37
2023-08-10T14:53:46.079Z,53.01
2023-08-10T14:56:13.103Z,57.44
2023-08-10T14:58:39.895Z,54.21
2023-08-10T15:01:06.624Z,57.01
2023-08-10T15:03:33.422Z,54.79
2023-08-10T15:06:08.156Z,58.06
2023-08-10T15:08:36.133Z,59.78
2023-08-10T15:11:07.076Z,61.25
2023-08-10T15:13:35.281Z,61.57
2023-08-10T15:16:02.855Z,61.50
2023-08-10T15:18:30.230Z,61.79
2023-08-10T15:20:57.363Z,61.61
2023-08-10T15:23:40.058Z,60.91
2023-08-10T15:26:09.078Z,56.95
2023-08-10T15:28:38.035Z,58.05
2023-08-10T15:31:07.665Z,59.49
2023-08-10T15:33:34.543Z,59.67
2023-08-10T15:36:01.454Z,60.49
2023-08-10T15:38:28.465Z,58.35
2023-08-10T15:40:56.685Z,58.62
2023-08-10T15:43:23.571Z,60.41
2023-08-10T15:45:51.821Z,61.43
2023-08-10T15:48:19.323Z,62.56
2023-08-10T15:50:46.239Z,62.39
2023-08-10T15:53:12.936Z,63.04
2023-08-10T15:55:39.807Z,62.24
2023-08-10T15:58:06.574Z,61.96
2023-08-10T16:00:34.322Z,61.41
2023-08-10T16:03:01.708Z,61.36
2023-08-10T16:05:28.659Z,60.73
2023-08-10T16:07:55.381Z,60.48
2023-08-10T16:10:22.331Z,61.18
2023-08-10T16:12:49.074Z,62.43
2023-08-10T16:15:15.765Z,61.29
2023-08-10T16:17:42.482Z,61.08
2023-08-10T16:20:11.590Z,59.47
2023-08-10T16:22:39.482Z,58.69
2023-08-10T16:25:06.401Z,56.58
2023-08-10T16:27:33.503Z,54.95
2023-08-10T16:30:00.239Z,55.28
2023-08-10T16:32:27.295Z,57.25
2023-08-10T16:34:54.537Z,58.54
2023-08-10T16:37:21.437Z,57.43
2023-08-10T16:39:48.264Z,56.46
2023-08-10T16:42:15.494Z,58.16
2023-08-10T16:44:42.203Z,58.26
2023-08-10T16:47:09.390Z,59.05
2023-08-10T16:49:36.169Z,60.33
2023-08-10T16:52:02.929Z,60.79
2023-08-10T16:54:29.658Z,60.46
2023-08-10T16:56:57.322Z,61.66
2023-08-10T16:59:24.085Z,62.07
2023-08-10T17:01:50.864Z,63.00
2023-08-10T17:04:18.790Z,63.16
2023-08-10T17:06:45.528Z,63.73
2023-08-10T17:09:12.316Z,64.59
2023-08-10T17:11:39.012Z,64.91
2023-08-10T17:14:05.904Z,66.10
2023-08-10T17:16:33.371Z,67.04
2023-08-10T17:19:00.258Z,67.64
2023-08-10T17:21:27.115Z,67.82
2023-08-10T17:23:53.928Z,68.27
2023-08-10T17:26:20.714Z,69.17
2023-08-10T17:28:47.441Z,70.16
2023-08-10T17:31:15.458Z,71.39
2023-08-10T17:33:42.824Z,71.79
2023-08-10T17:36:09.680Z,72.45
2023-08-10T17:38:36.658Z,72.57
2023-08-10T17:41:03.637Z,72.58
2023-08-10T17:43:33.412Z,73.38
2023-08-10T17:46:00.257Z,73.68
2023-08-10T17:48:26.950Z,74.02
2023-08-10T17:50:53.859Z,74.04
2023-08-10T17:53:20.563Z,74.25
2023-08-10T17:55:48.960Z,74.51
2023-08-10T17:58:15.705Z,74.27
2023-08-10T18:00:45.341Z,74.44
2023-08-10T18:03:12.543Z,74.96
2023-08-10T18:05:39.478Z,75.29
2023-08-10T18:08:06.521Z,75.35
2023-08-10T18:10:33.223Z,74.98
2023-08-10T18:13:00.073Z,75.17
2023-08-10T18:15:26.731Z,75.44
2023-08-10T18:17:53.538Z,75.57
2023-08-10T18:20:22.889Z,75.81
2023-08-10T18:22:50.570Z,75.97
2023-08-10T18:25:17.539Z,76.17
2023-08-10T18:27:44.254Z,76.47
2023-08-10T18:30:13.082Z,76.75
2023-08-10T18:32:41.902Z,76.80
2023-08-10T18:35:09.190Z,77.82
2023-08-10T18:37:35.973Z,77.82
2023-08-10T18:40:04.100Z,78.47
2023-08-10T18:42:30.853Z,78.58
2023-08-10T18:44:57.720Z,78.37
2023-08-10T18:47:24.447Z,78.93
2023-08-10T18:49:54.186Z,79.11
2023-08-10T18:52:22.459Z,79.15
2023-08-10T18:54:49.407Z,79.52
2023-08-10T18:57:16.265Z,79.38
2023-08-10T18:59:42.983Z,79.62
2023-08-10T19:02:09.993Z,79.73
2023-08-10T19:04:36.845Z,79.80
2023-08-10T19:07:03.666Z,80.05
2023-08-10T19:09:30.343Z,80.10
2023-08-10T19:11:57.629Z,80.39
2023-08-10T19:14:25.038Z,80.55
2023-08-10T19:16:52.025Z,80.72
2023-08-10T19:19:18.970Z,81.06
2023-08-10T19:21:47.065Z,81.19
2023-08-10T19:24:13.740Z,81.39
2023-08-10T19:26:40.419Z,81.57
2023-08-10T19:29:07.152Z,81.96
2023-08-10T19:31:33.902Z,82.28
2023-08-10T19:34:00.667Z,82.80
2023-08-10T19:36:27.360Z,83.14
2023-08-10T19:38:54.041Z,83.50
2023-08-10T19:41:20.736Z,83.66
2023-08-10T19:43:47.833Z,84.03
2023-08-10T19:46:14.713Z,84.30
2023-08-10T19:48:41.821Z,84.46
2023-08-10T19:51:08.498Z,84.81
2023-08-10T19:53:35.263Z,84.99
2023-08-10T19:56:02.444Z,84.88
2023-08-10T19:58:29.193Z,85.58
2023-08-10T20:00:56.049Z,85.43
2023-08-10T20:03:26.280Z,85.93
2023-08-10T20:05:53.031Z,85.63
2023-08-10T20:08:20.314Z,85.88
2023-08-10T20:10:47.002Z,85.77
2023-08-10T20:13:14.158Z,85.92
2023-08-10T20:15:41.985Z,85.97
2023-08-10T20:18:09.035Z,86.12
2023-08-10T20:20:36.970Z,86.18
2023-08-10T20:23:04.427Z,86.23
2023-08-10T20:25:31.186Z,86.27
2023-08-10T20:27:58.911Z,86.43
2023-08-10T20:30:25.665Z,86.74
2023-08-10T20:32:52.416Z,86.72
2023-08-10T20:35:19.289Z,87.34
2023-08-10T20:37:46.039Z,87.88
2023-08-10T20:40:13.041Z,88.01
2023-08-10T20:42:39.816Z,87.98
2023-08-10T20:45:07.182Z,87.89
2023-08-10T20:47:35.050Z,88.02
2023-08-10T20:50:06.491Z,88.08
2023-08-10T20:52:33.192Z,88.17
2023-08-10T20:55:00.001Z,87.86
2023-08-10T20:57:26.682Z,87.96
2023-08-10T20:59:53.449Z,88.01
2023-08-10T21:02:20.331Z,88.46
2023-08-10T21:04:47.049Z,88.53
2023-08-10T21:07:14.614Z,88.65
2023-08-10T21:09:41.963Z,88.65
2023-08-10T21:12:10.291Z,88.53
2023-08-10T21:14:36.999Z,88.74
2023-08-10T21:17:05.313Z,88.89
2023-08-10T21:19:33.536Z,88.91
2023-08-10T21:22:00.292Z,88.75
2023-08-10T21:24:27.299Z,88.84
2023-08-10T21:26:54.002Z,88.93
2023-08-10T21:29:20.728Z,88.60
2023-08-10T21:31:47.419Z,88.55
2023-08-10T21:34:14.114Z,88.72
2023-08-10T21:36:42.525Z,88.59
2023-08-10T21:39:09.325Z,88.63
2023-08-10T21:41:36.024Z,88.60
2023-08-10T21:44:02.868Z,88.64
2023-08-10T21:46:29.603Z,88.53
2023-08-10T21:48:56.353Z,88.75
2023-08-10T21:51:23.092Z,88.87
2023-08-10T21:53:49.841Z,89.47
2023-08-10T21:56:16.527Z,89.37
2023-08-10T21:58:43.323Z,89.49
2023-08-10T22:01:10.136Z,89.57
2023-08-10T22:03:39.491Z,89.76
2023-08-10T22:06:06.122Z,90.18
2023-08-10T22:08:32.803Z,90.22
2023-08-10T22:10:59.673Z,90.54
2023-08-10T22:13:26.652Z,90.80
2023-08-10T22:15:53.525Z,90.81
2023-08-10T22:18:20.410Z,90.81
2023-08-10T22:20:47.762Z,90.57
2023-08-10T22:23:14.493Z,90.56
2023-08-10T22:25:41.199Z,90.40
2023-08-10T22:28:08.475Z,90.31
2023-08-10T22:30:36.080Z,90.18
2023-08-10T22:33:03.644Z,90.39
2023-08-10T22:35:30.889Z,90.42
2023-08-10T22:37:57.701Z,90.10
2023-08-10T22:40:24.859Z,90.08
2023-08-10T22:42:51.574Z,90.14
2023-08-10T22:45:18.654Z,90.20
2023-08-10T22:47:45.497Z,90.07
2023-08-10T22:50:14.849Z,90.18
2023-08-10T22:52:45.085Z,90.24
2023-08-10T22:55:12.544Z,90.38
2023-08-10T22:57:40.050Z,90.33
2023-08-10T23:00:07.765Z,90.25
2023-08-10T23:02:34.992Z,90.10
2023-08-10T23:05:02.157Z,90.26
2023-08-10T23:07:28.876Z,90.22
2023-08-10T23:09:56.331Z,90.27
2023-08-10T23:12:27.201Z,90.54
2023-08-10T23:14:54.951Z,90.51
2023-08-10T23:17:22.703Z,90.43
2023-08-10T23:19:49.584Z,90.12
2023-08-10T23:22:17.183Z,90.08
2023-08-10T23:24:44.059Z,89.87
2023-08-10T23:27:10.814Z,89.75
2023-08-10T23:29:38.195Z,89.91
2023-08-10T23:32:05.848Z,89.61
2023-08-10T23:34:33.201Z,89.43
2023-08-10T23:37:00.086Z,89.59
2023-08-10T23:39:26.761Z,89.89
2023-08-10T23:41:53.575Z,90.04
2023-08-10T23:44:20.710Z,90.09
2023-08-10T23:46:47.500Z,89.96
2023-08-10T23:49:14.357Z,90.00
2023-08-10T23:51:41.097Z,90.51
2023-08-10T23:54:07.875Z,90.88
2023-08-10T23:56:34.934Z,91.18
2023-08-10T23:59:03.101Z,91.62
